Skip Navigation LinksHome page > Weather > Current weather Skip Navigation Links

Current Weather

Fairford RAFB, Fairford, United Kingdom

For information only: do not use for flight planning or navigation.
Latest weather
Observation time Monday, October 18, 2021 9:36 PM BST
Local time Monday, October 18, 2021 10:03 PM BST
Flight conditions Instrument Meteorological Conditions
Winds
Wind direction Southwest (220°)
Wind speed 9 mph
Visibility 3.7 mi.
Present weather mist
Sky condition
Ceiling 700 ft. overcast
Cloud layer overcast 700 ft.
Temperature 61°F
Dewpoint 61°F
Altimeter 29.91 in.Hg
Derived measurements
Relative humidity 100%
Density altitude 381 ft.
Sea-level pressure 29.92 in.Hg
Remarks
Special weather observation.
Fully automated report.
System requires maintenance.
Automated weather observing station with precipitation discriminator.
Ceiling ceiling.
METAR SPXX61 KWBC 182041 SPECI EGVA 182036Z AUTO 22008KT 6000 BR OVC007 16/16 A2991 RMK AO2 CIG 005V007 CIG 005 RWY09 SLP131 $

Settings

Location code

InnerDrive.Weather 4.0.6770.0 Release CLR 4.0.30319.42000
Copyright ©2018 Inner Drive Technology. All rights reserved. Portions Copyright ©1986-2018 David Braverman.

Find weather

Site navigation


Skip Navigation Links

Place info

Page info

PayPal - The safer, easier way to pay online!

Return home.

Copyright ©2021 Inner Drive Technology. Purveyors of fine, hand-crafted computer software. Page printed 2021-10-18T21:03:08 UTC.